Weather History for Rockland, ME

Change the Weather History Date:

Thursday, February 14, 2013

  Actual Average Record
Temperature  
Mean Temperature 30 °F -  
Max Temperature 39 °F 30 °F 48 °F (2000)
Min Temperature 19 °F 15 °F -11 °F (2003)
Degree Days  
Heating Degree Days 35    
Moisture  
Dew Point 19 °F    
Average Humidity 59    
Maximum Humidity 86    
Minimum Humidity 39    
Precipitation  
Precipitation 0.00 in - - ()
Sea Level Pressure  
Sea Level Pressure 29.85 in    
Wind  
Wind Speed 5 mph (NNW)    
Max Wind Speed 10 mph    
Max Gust Speed 17 mph    
Visibility 10 miles    
Events      
Averages and records for this station are not official NWS values.
T = Trace of Precipitation, MM = Missing Value Source: NWS Daily Summary

Daily Weather History Graph

Daily Weather History Graph

Search for Another Location

Airport:

Trip Planner

Search our weather history database for the weather conditions in past years. The results will help you decide how hot, cold, wet, or windy it might be!

Date:

Astronomy

Feb. 14, 2013 Rise Set
Actual Time 6:36 AM EST 5:04 PM EST
Civil Twilight 6:07 AM EST 5:34 PM EST
Nautical Twilight 5:33 AM EST 6:08 PM EST
Astronomical Twilight 4:59 AM EST 6:42 PM EST
Moon 8:25 AM EST (2/14) 10:17 PM EST (2/14)
Length of Visible Light 11h 27m
Length of Day
10h 28m
Waxing Crescent, 21% of the Moon is Illuminated
Feb 14
Waxing Crescent
Feb 17
First Quarter
Feb 25
Full
Mar 4
Last Quarter
Mar 11
New

Hourly Weather History & Observations

Time (EST) Temp. Windchill Dew Point Humidity Pressure Visibility Wind Dir Wind Speed Gust Speed Precip Events Conditions
12:15 AM 33.8 °F 29.6 °F 21.2 °F 60% 29.73 in 10.0 mi North 4.6 mph - N/A   Overcast
12:55 AM 35.6 °F 29.2 °F 21.2 °F 56% 29.70 in 10.0 mi North 8.1 mph - N/A   Overcast
1:15 AM 35.6 °F 30.7 °F 21.2 °F 56% 29.69 in 10.0 mi North 5.8 mph - N/A   Mostly Cloudy
1:35 AM 33.8 °F 28.6 °F 21.2 °F 60% 29.72 in 10.0 mi NNE 5.8 mph - N/A   Mostly Cloudy
1:55 AM 33.8 °F 27.7 °F 21.2 °F 60% 29.75 in 10.0 mi NNE 6.9 mph - N/A   Overcast
2:15 AM 33.8 °F 27.0 °F 23.0 °F 65% 29.75 in 10.0 mi NNE 8.1 mph - N/A   Overcast
2:35 AM 33.8 °F 28.6 °F 23.0 °F 65% 29.74 in 10.0 mi NNE 5.8 mph - N/A   Overcast
2:55 AM 33.8 °F 28.6 °F 23.0 °F 65% 29.74 in 10.0 mi NNE 5.8 mph - N/A   Overcast
3:15 AM 33.8 °F 27.7 °F 23.0 °F 65% 29.74 in 10.0 mi North 6.9 mph - N/A   Overcast
3:35 AM 33.8 °F 29.6 °F 23.0 °F 65% 29.74 in 10.0 mi North 4.6 mph - N/A   Overcast
3:55 AM 33.8 °F 27.0 °F 21.2 °F 60% 29.74 in 10.0 mi NNE 8.1 mph - N/A   Overcast
4:15 AM 33.8 °F 27.0 °F 21.2 °F 60% 29.75 in 10.0 mi North 8.1 mph - N/A   Overcast
4:35 AM 33.8 °F 29.6 °F 21.2 °F 60% 29.76 in 10.0 mi North 4.6 mph - N/A   Overcast
5:15 AM 32.0 °F 25.6 °F 21.2 °F 64% 29.76 in 10.0 mi North 6.9 mph - N/A   Overcast
5:35 AM 32.0 °F 27.5 °F 21.2 °F 64% 29.77 in 10.0 mi North 4.6 mph - N/A   Overcast
5:55 AM 32.0 °F - 21.2 °F 64% 29.77 in 10.0 mi Calm Calm - N/A   Overcast
6:15 AM 32.0 °F 25.6 °F 21.2 °F 64% 29.77 in 10.0 mi North 6.9 mph - N/A   Overcast
6:35 AM 32.0 °F 25.6 °F 21.2 °F 64% 29.77 in 10.0 mi North 6.9 mph - N/A   Overcast
6:55 AM 30.2 °F 24.3 °F 21.2 °F 69% 29.78 in 10.0 mi North 5.8 mph - N/A   Scattered Clouds
7:15 AM 30.2 °F 24.3 °F 21.2 °F 69% 29.78 in 10.0 mi North 5.8 mph - N/A   Clear
7:35 AM 30.2 °F 24.3 °F 19.4 °F 64% 29.80 in 10.0 mi NNW 5.8 mph - N/A   Clear
7:55 AM 30.2 °F 26.7 °F 21.2 °F 69% 29.81 in 10.0 mi North 3.5 mph - N/A   Clear
8:15 AM 32.0 °F 26.4 °F 21.2 °F 64% 29.81 in 10.0 mi NNE 5.8 mph - N/A   Clear
8:35 AM 32.0 °F 27.5 °F 21.2 °F 64% 29.82 in 10.0 mi North 4.6 mph - N/A   Clear
8:55 AM 33.8 °F 26.4 °F 21.2 °F 60% 29.81 in 10.0 mi North 9.2 mph - N/A   Clear
9:15 AM 33.8 °F 27.0 °F 19.4 °F 56% 29.81 in 10.0 mi North 8.1 mph - N/A   Clear
9:35 AM 35.6 °F 30.7 °F 19.4 °F 52% 29.82 in 10.0 mi North 5.8 mph - N/A   Clear
9:55 AM 35.6 °F 29.9 °F 17.6 °F 48% 29.82 in 10.0 mi North 6.9 mph - N/A   Clear
10:15 AM 35.6 °F 29.2 °F 17.6 °F 48% 29.83 in 10.0 mi North 8.1 mph - N/A   Clear
10:35 AM 35.6 °F 29.9 °F 17.6 °F 48% 29.83 in 10.0 mi North 6.9 mph - N/A   Clear
10:55 AM 35.6 °F 31.7 °F 17.6 °F 48% 29.84 in 10.0 mi North 4.6 mph - N/A   Clear
11:35 AM 37.4 °F 30.3 °F 15.8 °F 41% 29.83 in 10.0 mi North 10.4 mph 16.1 mph N/A   Clear
11:55 AM 37.4 °F 30.8 °F 15.8 °F 41% 29.84 in 10.0 mi North 9.2 mph - N/A   Clear
12:15 PM 37.4 °F 30.3 °F 15.8 °F 41% 29.84 in 10.0 mi WNW 10.4 mph - N/A   Partly Cloudy
12:35 PM 37.4 °F 32.8 °F 17.6 °F 45% 29.84 in 10.0 mi NNW 5.8 mph - N/A   Partly Cloudy
12:55 PM 37.4 °F 32.8 °F 15.8 °F 41% 29.84 in 10.0 mi North 5.8 mph - N/A   Clear
1:15 PM 37.4 °F 30.3 °F 15.8 °F 41% 29.84 in 10.0 mi NW 10.4 mph - N/A   Clear
1:35 PM 37.4 °F 30.8 °F 15.8 °F 41% 29.84 in 10.0 mi NW 9.2 mph - N/A   Clear
1:55 PM 39.2 °F 33.0 °F 15.8 °F 39% 29.85 in 10.0 mi WNW 9.2 mph - N/A   Clear
2:15 PM 39.2 °F 32.5 °F 17.6 °F 42% 29.85 in 10.0 mi WNW 10.4 mph 17.3 mph N/A   Clear
2:35 PM 39.2 °F 33.6 °F 15.8 °F 39% 29.86 in 10.0 mi WNW 8.1 mph - N/A   Clear
2:55 PM 39.2 °F 35.9 °F 15.8 °F 39% 29.87 in 10.0 mi WNW 4.6 mph - N/A   Clear
3:15 PM 39.2 °F 33.6 °F 15.8 °F 39% 29.87 in 10.0 mi WNW 8.1 mph - N/A   Clear
3:35 PM 39.2 °F 35.9 °F 15.8 °F 39% 29.88 in 10.0 mi NNW 4.6 mph - N/A   Clear
3:55 PM 39.2 °F 33.6 °F 15.8 °F 39% 29.88 in 10.0 mi WNW 8.1 mph - N/A   Clear
4:15 PM 39.2 °F 33.6 °F 15.8 °F 39% 29.88 in 10.0 mi WNW 8.1 mph - N/A   Clear
4:35 PM 37.4 °F 32.8 °F 15.8 °F 41% 29.90 in 10.0 mi NNW 5.8 mph - N/A   Clear
4:55 PM 37.4 °F 33.8 °F 15.8 °F 41% 29.91 in 10.0 mi West 4.6 mph - N/A   Clear
5:15 PM 35.6 °F 32.8 °F 15.8 °F 44% 29.92 in 10.0 mi NW 3.5 mph - N/A   Clear
5:35 PM 35.6 °F - 15.8 °F 44% 29.94 in 10.0 mi Calm Calm - N/A   Clear
5:55 PM 30.2 °F - 17.6 °F 60% 29.94 in 10.0 mi Calm Calm - N/A   Clear
6:15 PM 30.2 °F - 17.6 °F 60% 29.94 in 10.0 mi Calm Calm - N/A   Clear
6:35 PM 28.4 °F 24.6 °F 19.4 °F 69% 29.96 in 10.0 mi West 3.5 mph - N/A   Clear
6:55 PM 28.4 °F - 17.6 °F 64% 29.97 in 10.0 mi Calm Calm - N/A   Clear
7:15 PM 26.6 °F - 17.6 °F 69% 29.98 in 10.0 mi Calm Calm - N/A   Clear
7:35 PM 26.6 °F - 17.6 °F 69% 29.98 in 10.0 mi Calm Calm - N/A   Clear
7:55 PM 24.8 °F - 17.6 °F 74% 29.98 in 10.0 mi Calm Calm - N/A   Clear
8:15 PM 24.8 °F - 17.6 °F 74% 29.98 in 10.0 mi Calm Calm - N/A   Clear
8:35 PM 24.8 °F - 17.6 °F 74% 29.98 in 10.0 mi Calm Calm - N/A   Clear
8:55 PM 23.0 °F - 17.6 °F 80% 29.98 in 10.0 mi Calm Calm - N/A   Clear
9:15 PM 24.8 °F - 17.6 °F 74% 29.98 in 10.0 mi Calm Calm - N/A   Clear
9:35 PM 23.0 °F 17.0 °F 17.6 °F 80% 29.98 in 10.0 mi West 4.6 mph - N/A   Clear
9:55 PM 24.8 °F - 19.4 °F 80% 29.99 in 10.0 mi Calm Calm - N/A   Clear
10:15 PM 21.2 °F - 17.6 °F 86% 29.98 in 10.0 mi Calm Calm - N/A   Clear
10:35 PM 21.2 °F - 17.6 °F 86% 29.98 in 10.0 mi Calm Calm - N/A   Clear
10:55 PM 21.2 °F - 17.6 °F 86% 29.98 in 10.0 mi Calm Calm - N/A   Clear
11:15 PM 21.2 °F - 15.8 °F 80% 29.98 in 10.0 mi Calm Calm - N/A   Clear
11:35 PM 21.2 °F 16.4 °F 17.6 °F 86% 29.99 in 10.0 mi West 3.5 mph - N/A   Clear
11:55 PM 19.4 °F - 15.8 °F 86% 29.99 in 10.0 mi Calm Calm - N/A   Clear